Cleveland, Ohio
Traffic Map
Current Weather Conditions
Cleveland, Ohio
Overcast
Overcast
64°
Feels Like: 64°
Wind Chill: 64° Ceiling: 3600
Heat Index: 64° Visibility: 10mi
Dew Point: 58° Wind: 5mph
Humidity: 80% Direction: 140° (SE)
Pressure: 29.79in Gusts: 0mph
Raw Report DataKBKL 300808Z 14004KT 10SM FEW022 BKN036 OVC050 18/14 A2979 RMK AO2 T01780144
Traffic Incident Summary
Active as of:
Severity:
Category:
InformationThere was an issue retrieving the traffic information for this location. Please try a different location or try again shortly.
Advertisements
Track Severe Weather on mobile